X  Tanca Dades meteorològiques de l'aviació METAR        LELL Aeropuerto de Barcelona Josep Tarradellas
Temperatura
23°C Temperatura
18°C Rosada
73% Humitat



Vent
9 KM/H
6 MPH
3 M/S
5 NUS



90°
E
Condicions actuals

Mostly Sunny Majoritàriament assolellat
Pressió 1011 (hPa) - 29.85 (inHg)
Visibilitat 6 (milla) - 9 (km)
Aeroport
Codi aeroport LELL

Ubicació: Aeropuerto de Barcelona Josep Tarradellas
Distància: 20 (km)

Metar:
METAR LELL 190800Z 09005KT 050V120 9000 FEW018 23/18 Q1012

Temps: 19-06-2024 10:00 CEST